KNLC/NLC METAR and TAF weather

Enter ICAO airport designator
Station Type Date Time Source
KNLC METAR 2020/07/07 07:56 UTC NOAA

KNLC 070756Z 35013KT 10SM CLR 21/06 A2987 RMK AO2 SLP114 T02060056 403720128


Station Type Date Time Source
KNLC Decoded METAR 2020/07/07 07:56 UTC NOAA

LEMOORE NAVAL AIR STATION, CA, United States (KNLC) 36-20N 119-57W 72M
Jul 07, 2020 - 03:56 AM EDT / 2020.07.07 0756 UTC
Wind: from the N (350 degrees) at 15 MPH (13 KT):0
Visibility: 10 mile(s):0
Sky conditions: clear
Temperature: 69.1 F (20.6 C)
Dew Point: 42.1 F (5.6 C)
Relative Humidity: 37%
Pressure (altimeter): 29.87 in. Hg (1011 hPa)
ob: KNLC 070756Z 35013KT 10SM CLR 21/06 A2987 RMK AO2 SLP114 T02060056 403720128
cycle: 8

Station Type Date Time Source
KNLC TAF 2020/07/07 07:06 UTC NOAA

TAF KNLC 0707/0807 33010G16KT 9999 SKC QNH2982INS
FM071200 VRB06KT 9999 SKC QNH2979INS AUTOMATED SENSOR METWATCH 0707 TIL 0714 T13/0713Z T35/0723Z FS30149

Example: see airport list